Time;durP1;ratioP1;P1;durP2;ratioP2;P2;SDS_P1;SDS_P2;PMS_P1;PMS_P2;Temp;Humidity;BMP_temperature;BMP_pressure;BME280_temperature;BME280_humidity;BME280_pressure;Samples;Min_cycle;Max_cycle;Signal;HPM_P1;HPM_P2
2022/06/14 00:01:52;;;;;;;3.90;0.90;;;;;;;19.45;100.00;98933.84;1724905;82;21022;-54
2022/06/14 00:04:19;;;;;;;3.87;0.80;;;;;;;19.44;100.00;98935.36;1725962;80;21092;-56
2022/06/14 00:06:46;;;;;;;1.85;0.90;;;;;;;19.42;100.00;98931.91;1725606;81;21050;-55
2022/06/14 00:09:12;;;;;;;0.80;0.80;;;;;;;19.37;100.00;98933.73;1726619;82;22248;-55
2022/06/14 00:11:39;;;;;;;0.90;0.90;;;;;;;19.34;100.00;98931.29;1723560;80;21562;-54
2022/06/14 00:14:07;;;;;;;2.02;0.80;;;;;;;19.31;100.00;98932.11;1723153;80;20950;-57
2022/06/14 00:16:33;;;;;;;1.32;0.72;;;;;;;19.27;100.00;98926.08;1729162;80;20974;-55
2022/06/14 00:19:01;;;;;;;1.07;0.98;;;;;;;19.25;100.00;98925.36;1735320;82;21389;-55
2022/06/14 00:21:27;;;;;;;1.02;0.88;;;;;;;19.23;100.00;98928.23;1725633;82;21057;-55
2022/06/14 00:23:54;;;;;;;0.85;0.80;;;;;;;19.23;100.00;98928.73;1726638;80;21447;-58
2022/06/14 00:26:21;;;;;;;0.95;0.85;;;;;;;19.20;100.00;98923.09;1726223;80;20923;-57
2022/06/14 00:28:47;;;;;;;1.80;0.90;;;;;;;19.18;100.00;98914.69;1724301;81;20911;-54
2022/06/14 00:31:23;;;;;;;1.20;0.90;;;;;;;19.16;100.00;98920.80;1726421;81;21018;-58
2022/06/14 00:33:50;;;;;;;0.93;0.90;;;;;;;19.13;100.00;98919.24;1662237;84;21752;-54
2022/06/14 00:36:31;;;;;;;2.25;1.00;;;;;;;19.10;100.00;98913.20;1726736;80;21429;-54
2022/06/14 00:39:00;;;;;;;1.67;0.90;;;;;;;19.06;100.00;98915.86;1729824;81;21409;-55
2022/06/14 00:41:35;;;;;;;2.75;0.82;;;;;;;19.02;100.00;98911.73;1730034;81;20978;-55
2022/06/14 00:44:04;;;;;;;1.52;0.80;;;;;;;18.97;100.00;98908.59;1727995;80;21505;-56
2022/06/14 00:46:44;;;;;;;3.33;0.80;;;;;;;18.92;100.00;98906.80;1725826;81;21183;-59
2022/06/14 00:49:24;;;;;;;1.82;0.78;;;;;;;18.88;100.00;98906.25;1725356;81;20957;-55
2022/06/14 00:51:56;;;;;;;0.80;0.80;;;;;;;18.82;100.00;98904.08;1693640;82;21090;-58
2022/06/14 00:54:26;;;;;;;0.90;0.80;;;;;;;18.76;100.00;98909.63;1723956;82;20940;-54
2022/06/14 00:57:07;;;;;;;1.15;0.70;;;;;;;18.71;100.00;98908.36;1728014;82;21472;-54
2022/06/14 00:59:42;;;;;;;1.20;0.70;;;;;;;18.67;100.00;98910.50;1722853;81;21006;-58
2022/06/14 01:02:23;;;;;;;1.30;0.80;;;;;;;18.64;100.00;98905.83;1723472;81;21497;-55
2022/06/14 01:04:49;;;;;;;1.17;0.70;;;;;;;18.62;100.00;98899.19;1729672;82;21433;-54
2022/06/14 01:07:20;;;;;;;2.37;0.90;;;;;;;18.59;100.00;98900.83;1720159;81;20883;-53
2022/06/14 01:09:50;;;;;;;2.35;0.90;;;;;;;18.57;100.00;98902.83;1726265;82;21062;-57
2022/06/14 01:12:24;;;;;;;2.10;0.90;;;;;;;18.56;100.00;98896.12;1727564;80;21703;-53
2022/06/14 01:15:06;;;;;;;2.85;0.80;;;;;;;18.52;100.00;98896.93;1716108;81;21615;-53
2022/06/14 01:17:43;;;;;;;3.70;1.57;;;;;;;18.49;100.00;98898.07;1724895;82;21137;-54
2022/06/14 01:20:12;;;;;;;1.25;0.80;;;;;;;18.46;100.00;98895.63;1728633;81;21093;-55
2022/06/14 01:22:40;;;;;;;4.00;0.90;;;;;;;18.43;100.00;98897.80;1728768;80;21045;-56
2022/06/14 01:25:07;;;;;;;0.90;0.78;;;;;;;18.38;100.00;98899.57;1721004;82;21311;-53
2022/06/14 01:27:36;;;;;;;1.32;0.70;;;;;;;18.36;100.00;98899.38;1728907;82;21069;-55
2022/06/14 01:30:15;;;;;;;1.47;0.80;;;;;;;18.33;100.00;98898.30;1730357;82;21037;-54
2022/06/14 01:32:51;;;;;;;0.85;0.60;;;;;;;18.31;100.00;98897.06;1726531;82;21571;-54
2022/06/14 01:35:21;;;;;;;1.15;0.90;;;;;;;18.31;100.00;98894.84;1719391;82;21536;-58
2022/06/14 01:37:50;;;;;;;0.68;0.68;;;;;;;18.30;100.00;98889.89;1725682;82;21130;-54
2022/06/14 01:40:18;;;;;;;1.27;0.62;;;;;;;18.32;100.00;98887.03;1728528;80;21093;-54
2022/06/14 01:43:10;;;;;;;5.37;0.70;;;;;;;18.33;100.00;98889.62;1724438;80;21041;-54
2022/06/14 01:45:48;;;;;;;1.17;0.60;;;;;;;18.35;100.00;98886.76;1721498;82;21070;-55
2022/06/14 01:48:31;;;;;;;1.57;0.62;;;;;;;18.36;100.00;98878.95;1730370;81;21045;-58
2022/06/14 01:54:27;;;;;;;1.00;0.70;;;;;;;18.36;100.00;98876.22;1726715;82;20974;-56
2022/06/14 01:57:13;;;;;;;2.77;0.70;;;;;;;18.36;100.00;98877.58;1719896;81;21106;-58
2022/06/14 02:00:03;;;;;;;1.00;0.60;;;;;;;18.34;100.00;98876.86;1725939;80;21070;-59
2022/06/14 02:04:37;;;;;;;1.00;0.90;;;;;;;18.35;100.00;98879.95;1676992;82;21120;-55
2022/06/14 02:05:28;;;;;;;0.90;0.70;;;;;;;18.33;100.00;98879.22;1721446;82;21883;-53
2022/06/14 02:08:03;;;;;;;1.30;0.68;;;;;;;18.31;100.00;98878.00;1717135;82;21022;-54
2022/06/14 02:10:38;;;;;;;3.58;0.70;;;;;;;18.32;100.00;98878.86;1685482;82;21623;-54
2022/06/14 02:13:21;;;;;;;4.75;0.70;;;;;;;18.31;100.00;98873.91;1686723;82;21066;-56
2022/06/14 02:15:58;;;;;;;0.78;0.72;;;;;;;18.30;100.00;98872.69;1720341;82;21066;-53
2022/06/14 02:18:37;;;;;;;0.60;0.60;;;;;;;18.32;100.00;98870.69;1727966;82;21469;-57
2022/06/14 02:21:26;;;;;;;1.27;0.65;;;;;;;18.32;100.00;98877.00;1724010;82;21120;-54
2022/06/14 02:24:13;;;;;;;0.70;0.60;;;;;;;18.34;100.00;98878.22;1727984;82;20918;-54
2022/06/14 02:26:45;;;;;;;1.72;0.60;;;;;;;18.34;100.00;98876.86;1730097;82;21086;-53
2022/06/14 02:29:22;;;;;;;1.07;0.70;;;;;;;18.33;100.00;98876.50;1683934;82;21105;-54
2022/06/14 02:31:59;;;;;;;1.50;0.70;;;;;;;18.32;100.00;98873.41;1728395;80;22162;-54
2022/06/14 02:34:44;;;;;;;0.90;0.60;;;;;;;18.28;100.00;98871.49;1712165;82;21081;-53
2022/06/14 02:37:19;;;;;;;5.62;1.02;;;;;;;18.27;100.00;98868.41;1727994;81;21937;-58
2022/06/14 02:39:56;;;;;;;2.15;0.80;;;;;;;18.25;100.00;98875.86;1729839;81;21429;-54
2022/06/14 02:42:40;;;;;;;4.92;0.90;;;;;;;18.19;100.00;98867.41;1720923;80;21651;-55
2022/06/14 02:45:15;;;;;;;1.00;0.72;;;;;;;18.14;100.00;98869.18;1714180;82;21891;-54
2022/06/14 02:47:51;;;;;;;1.27;0.70;;;;;;;18.10;100.00;98864.54;1727199;81;21080;-54
2022/06/14 02:50:28;;;;;;;3.20;0.65;;;;;;;18.09;100.00;98864.67;1738703;80;21077;-56
2022/06/14 02:53:09;;;;;;;0.85;0.70;;;;;;;18.10;100.00;98860.45;1737459;81;21113;-55
2022/06/14 02:55:43;;;;;;;0.70;0.70;;;;;;;18.14;100.00;98856.42;1734973;80;20966;-53
2022/06/14 02:58:19;;;;;;;1.47;0.60;;;;;;;18.22;100.00;98852.12;1733131;81;21129;-55
2022/06/14 03:00:51;;;;;;;0.93;0.70;;;;;;;18.29;100.00;98844.58;1734251;80;21029;-56
2022/06/14 03:03:24;;;;;;;1.47;0.60;;;;;;;18.38;100.00;98851.03;1734796;81;20969;-57
2022/06/14 03:06:01;;;;;;;;;;;;;;;18.46;100.00;98849.30;1742065;81;20914;-53
2022/06/14 03:08:47;;;;;;;0.60;0.60;;;;;;;18.55;100.00;98853.02;1703292;80;20180;-53
2022/06/14 03:11:31;;;;;;;1.05;0.60;;;;;;;18.61;100.00;98844.31;1721594;81;21084;-56
2022/06/14 03:14:19;;;;;;;0.72;0.62;;;;;;;18.70;100.00;98851.61;1742296;80;21739;-56
2022/06/14 03:17:32;;;;;;;0.75;0.65;;;;;;;18.78;100.00;98854.96;1708933;80;20949;-58
2022/06/14 03:20:04;;;;;;;0.78;0.70;;;;;;;18.85;100.00;98848.77;1706743;82;21500;-55
2022/06/14 03:22:56;;;;;;;0.70;0.70;;;;;;;18.95;100.00;98856.06;1711203;82;21053;-53
2022/06/14 03:25:57;;;;;;;1.98;0.70;;;;;;;19.01;100.00;98868.59;1725667;80;21435;-54
2022/06/14 03:28:32;;;;;;;0.70;0.70;;;;;;;19.09;100.00;98885.58;1733696;80;21013;-55
2022/06/14 03:31:34;;;;;;;6.47;0.80;;;;;;;19.15;100.00;98904.93;1701035;82;21482;-55
2022/06/14 03:34:32;;;;;;;1.00;0.57;;;;;;;19.20;100.00;98906.73;1738824;81;20954;-56
2022/06/14 03:37:00;;;;;;;3.12;1.12;;;;;;;19.27;100.00;98913.30;1736237;80;20895;-55
2022/06/14 03:39:33;;;;;;;2.75;0.90;;;;;;;19.34;100.00;98909.47;1740217;81;21310;-53
2022/06/14 03:42:03;;;;;;;2.27;0.82;;;;;;;19.39;100.00;98913.98;1710973;81;21417;-55
2022/06/14 03:44:31;;;;;;;1.57;0.90;;;;;;;19.42;100.00;98909.57;1731566;81;21484;-54
2022/06/14 03:47:21;;;;;;;7.37;1.30;;;;;;;19.45;100.00;98906.55;1738050;80;21040;-55
2022/06/14 03:49:55;;;;;;;6.58;1.10;;;;;;;19.47;100.00;98914.13;1730547;82;21430;-55
2022/06/14 03:52:48;;;;;;;2.37;1.37;;;;;;;19.49;100.00;98916.68;1726131;82;21105;-55
2022/06/14 03:55:43;;;;;;;1.40;0.90;;;;;;;19.51;100.00;98921.48;1711047;82;21022;-53
2022/06/14 03:58:33;;;;;;;;;;;;;;;19.50;100.00;98932.91;1727752;82;21142;-55
2022/06/14 04:03:10;;;;;;;1.10;1.00;;;;;;;19.58;100.00;98926.70;1791657;79;28117;-57
2022/06/14 04:05:53;;;;;;;5.47;1.40;;;;;;;19.55;100.00;98948.86;1767763;80;21001;-54
2022/06/14 04:09:01;;;;;;;2.77;1.35;;;;;;;19.55;100.00;98957.05;1767021;80;21969;-54
2022/06/14 04:11:45;;;;;;;2.75;1.10;;;;;;;19.57;100.00;98980.93;1759165;80;21045;-52
2022/06/14 04:14:56;;;;;;;2.33;1.22;;;;;;;19.57;100.00;98985.89;1766813;80;21045;-53
2022/06/14 04:17:50;;;;;;;4.78;1.52;;;;;;;19.56;100.00;98981.97;1776399;80;20954;-51
2022/06/14 04:20:39;;;;;;;2.65;1.00;;;;;;;19.52;100.00;98987.36;1762412;80;21287;-53
2022/06/14 04:23:20;;;;;;;1.50;1.25;;;;;;;19.46;100.00;99002.44;1761533;79;21165;-51
2022/06/14 04:26:05;;;;;;;4.15;1.07;;;;;;;19.43;100.00;99019.09;1769906;80;21072;-53
2022/06/14 04:28:46;;;;;;;5.28;1.30;;;;;;;19.37;100.00;99027.02;1768559;80;21037;-54
2022/06/14 04:31:37;;;;;;;5.42;0.72;;;;;;;19.30;100.00;99024.02;1737932;80;21068;-52
2022/06/14 04:34:23;;;;;;;1.12;0.70;;;;;;;19.25;100.00;99023.58;1768249;79;21097;-51
2022/06/14 04:37:13;;;;;;;3.40;0.80;;;;;;;19.24;100.00;99038.22;1767822;80;21251;-53
2022/06/14 04:39:56;;;;;;;2.72;0.70;;;;;;;19.27;100.00;99037.44;1767212;80;21966;-56
2022/06/14 04:42:38;;;;;;;1.87;0.80;;;;;;;19.32;100.00;99044.31;1766132;80;21527;-51
2022/06/14 04:45:18;;;;;;;1.37;0.70;;;;;;;19.28;100.00;99038.30;1764389;80;20926;-52
2022/06/14 04:47:59;;;;;;;1.35;0.68;;;;;;;19.19;100.00;99036.45;1766263;80;21092;-52
2022/06/14 04:50:37;;;;;;;2.05;0.70;;;;;;;19.06;100.00;99043.55;1717203;83;21157;-54
2022/06/14 04:53:21;;;;;;;0.78;0.60;;;;;;;18.90;100.00;99044.14;1736173;81;21133;-56
2022/06/14 04:55:56;;;;;;;1.70;0.65;;;;;;;18.78;100.00;99048.03;1746230;81;21001;-54
2022/06/14 04:58:36;;;;;;;0.68;0.50;;;;;;;18.71;100.00;99048.24;1703519;81;21021;-49
2022/06/14 05:01:29;;;;;;;1.60;0.82;;;;;;;18.66;100.00;99070.95;1685882;82;23194;-53
2022/06/14 05:04:05;;;;;;;0.50;0.50;;;;;;;18.62;100.00;99062.72;1677123;85;21108;-52
2022/06/14 05:06:41;;;;;;;3.80;0.55;;;;;;;18.59;100.00;99064.35;1678644;85;21845;-52
2022/06/14 05:09:18;;;;;;;1.15;0.60;;;;;;;18.57;100.00;99073.66;1683088;83;22171;-53
2022/06/14 05:12:17;;;;;;;0.78;0.50;;;;;;;18.52;100.00;99079.02;1721436;82;21077;-51
2022/06/14 05:15:17;;;;;;;0.80;0.37;;;;;;;18.49;100.00;99076.56;1719285;82;21094;-56
2022/06/14 05:17:49;;;;;;;1.17;0.33;;;;;;;18.48;100.00;99075.34;1716908;82;22429;-55
2022/06/14 05:20:24;;;;;;;1.30;0.40;;;;;;;18.47;100.00;99077.70;1721612;82;21558;-56
2022/06/14 05:23:21;;;;;;;1.20;0.40;;;;;;;18.45;100.00;99091.98;1726898;82;21514;-54
2022/06/14 05:26:17;;;;;;;1.32;0.33;;;;;;;18.43;100.00;99096.20;1656048;85;21500;-54
2022/06/14 05:29:01;;;;;;;1.30;0.30;;;;;;;18.38;100.00;99097.60;1718910;81;21078;-55
2022/06/14 05:31:45;;;;;;;2.42;0.33;;;;;;;18.32;100.00;99111.79;1645400;85;21146;-56
2022/06/14 05:34:42;;;;;;;1.55;0.20;;;;;;;18.31;100.00;99101.89;1722494;82;20971;-56
2022/06/14 05:37:36;;;;;;;0.20;0.17;;;;;;;18.33;100.00;99093.95;1716594;82;21019;-56
2022/06/14 05:40:14;;;;;;;0.20;0.20;;;;;;;18.36;100.00;99096.41;1721123;81;21664;-58
2022/06/14 05:42:59;;;;;;;0.68;0.20;;;;;;;18.38;100.00;99112.59;1720719;82;21655;-53
2022/06/14 05:45:26;;;;;;;0.17;0.17;;;;;;;18.41;100.00;99105.52;1719249;81;21066;-52
2022/06/14 05:48:08;;;;;;;0.20;0.10;;;;;;;18.40;100.00;99128.30;1716820;81;21046;-56
2022/06/14 05:50:44;;;;;;;0.65;0.30;;;;;;;18.38;100.00;99143.42;1721527;82;21114;-52
2022/06/14 05:53:33;;;;;;;1.00;0.20;;;;;;;18.37;100.00;99154.48;1726090;82;21307;-51
2022/06/14 05:56:37;;;;;;;0.20;0.20;;;;;;;18.34;100.00;99155.62;1720147;82;21046;-54
2022/06/14 05:59:22;;;;;;;1.55;0.20;;;;;;;18.33;100.00;99154.38;1718628;82;21175;-52
2022/06/14 06:01:57;;;;;;;1.40;0.20;;;;;;;18.37;100.00;99157.21;1717784;82;21097;-55
2022/06/14 06:04:29;;;;;;;0.28;0.20;;;;;;;18.40;100.00;99165.95;1722132;82;21591;-55
2022/06/14 06:07:00;;;;;;;0.40;0.20;;;;;;;18.41;100.00;99164.09;1722621;81;20884;-55
2022/06/14 06:09:31;;;;;;;0.62;0.20;;;;;;;18.40;100.00;99156.92;1726641;82;20950;-55
2022/06/14 06:12:09;;;;;;;0.40;0.30;;;;;;;18.40;100.00;99162.36;1717942;81;21174;-55
2022/06/14 06:14:45;;;;;;;0.30;0.20;;;;;;;18.40;100.00;99180.94;1716304;81;21030;-57
2022/06/14 06:17:20;;;;;;;2.30;0.10;;;;;;;18.39;100.00;99187.88;1651116;85;21320;-52
2022/06/14 06:20:13;;;;;;;0.20;0.15;;;;;;;18.33;100.00;99185.22;1729717;82;21495;-54
2022/06/14 06:22:49;;;;;;;0.17;0.17;;;;;;;18.22;100.00;99181.70;1727626;82;20976;-52
2022/06/14 06:25:27;;;;;;;0.15;0.13;;;;;;;18.09;100.00;99204.59;1727504;81;22150;-53
2022/06/14 06:28:10;;;;;;;1.17;0.10;;;;;;;18.01;100.00;99230.78;1726958;82;20883;-54
2022/06/14 06:30:47;;;;;;;0.57;0.20;;;;;;;17.96;100.00;99247.50;1730045;82;21395;-55
2022/06/14 06:33:14;;;;;;;1.25;0.20;;;;;;;17.85;100.00;99263.91;1726857;81;20957;-53
2022/06/14 06:35:55;;;;;;;0.30;0.10;;;;;;;17.73;100.00;99250.84;1731980;82;20928;-53
2022/06/14 06:38:46;;;;;;;0.50;0.20;;;;;;;17.60;100.00;99247.92;1730288;82;21178;-54
2022/06/14 06:44:25;;;;;;;1.20;0.20;;;;;;;17.35;100.00;99249.96;1727242;81;20880;-54
2022/06/14 06:47:04;;;;;;;2.10;0.30;;;;;;;17.28;100.00;99245.17;1652478;84;21003;-53
2022/06/14 06:49:42;;;;;;;0.20;0.20;;;;;;;17.24;100.00;99251.88;1721510;82;20963;-53
2022/06/14 06:52:11;;;;;;;0.47;0.23;;;;;;;17.20;100.00;99249.02;1681675;82;21275;-54
2022/06/14 06:54:43;;;;;;;1.05;0.30;;;;;;;17.18;100.00;99253.75;1720815;82;21440;-51
2022/06/14 06:57:12;;;;;;;0.82;0.20;;;;;;;17.16;100.00;99252.52;1721125;81;21073;-55
2022/06/14 06:59:42;;;;;;;0.30;0.30;;;;;;;17.17;100.00;99250.66;1720872;82;21445;-53
2022/06/14 07:02:42;;;;;;;0.20;0.20;;;;;;;17.18;100.00;99269.55;1651284;84;21565;-52
2022/06/14 07:05:17;;;;;;;0.70;0.30;;;;;;;17.18;100.00;99279.06;1677435;83;21068;-53
2022/06/14 07:07:56;;;;;;;1.92;0.20;;;;;;;17.18;100.00;99283.14;1719811;82;21068;-52
2022/06/14 07:10:43;;;;;;;0.30;0.28;;;;;;;17.20;100.00;99285.74;1723232;82;21006;-52
2022/06/14 07:13:34;;;;;;;0.30;0.20;;;;;;;17.24;100.00;99284.02;1720672;80;21053;-52
2022/06/14 07:16:18;;;;;;;0.30;0.30;;;;;;;17.28;100.00;99290.91;1723103;82;21059;-54
2022/06/14 07:18:55;;;;;;;1.95;0.20;;;;;;;17.39;100.00;99292.26;1722430;82;21130;-52
2022/06/14 07:21:30;;;;;;;0.25;0.25;;;;;;;17.52;100.00;99296.69;1648647;85;21046;-51
2022/06/14 07:24:10;;;;;;;0.30;0.20;;;;;;;17.59;100.00;99291.09;1686905;82;21093;-53
2022/06/14 07:26:48;;;;;;;0.20;0.20;;;;;;;17.61;100.00;99291.80;1720503;82;21071;-55
2022/06/14 07:29:38;;;;;;;0.20;0.20;;;;;;;17.61;100.00;99299.47;1722495;82;21079;-53
2022/06/14 07:32:23;;;;;;;0.20;0.20;;;;;;;17.59;100.00;99306.92;1651189;85;22107;-55
2022/06/14 07:34:50;;;;;;;0.20;0.20;;;;;;;17.56;100.00;99303.58;1653543;84;21540;-52
2022/06/14 07:37:38;;;;;;;0.33;0.30;;;;;;;17.47;100.00;99309.80;1700358;82;21598;-52
2022/06/14 07:40:23;;;;;;;0.20;0.20;;;;;;;17.42;100.00;99305.24;1717692;82;21498;-55
2022/06/14 07:43:12;;;;;;;0.20;0.20;;;;;;;17.35;100.00;99309.81;1679137;83;20967;-54
2022/06/14 07:45:42;;;;;;;0.30;0.30;;;;;;;17.32;100.00;99307.86;1721508;82;21405;-54
2022/06/14 07:48:41;;;;;;;0.62;0.35;;;;;;;17.26;100.00;99307.88;1725409;82;20936;-55
2022/06/14 07:51:24;;;;;;;0.30;0.30;;;;;;;17.25;100.00;99315.67;1727849;82;21026;-56
2022/06/14 07:54:21;;;;;;;0.28;0.20;;;;;;;17.25;100.00;99325.19;1724633;82;21370;-55
2022/06/14 07:56:58;;;;;;;0.25;0.23;;;;;;;17.25;100.00;99316.16;1729583;82;21043;-55
2022/06/14 07:59:33;;;;;;;0.23;0.20;;;;;;;17.29;100.00;99325.29;1706375;82;21137;-56
2022/06/14 08:02:08;;;;;;;0.28;0.20;;;;;;;17.36;100.00;99336.52;1656434;82;21482;-55
2022/06/14 08:04:54;;;;;;;0.30;0.20;;;;;;;17.42;100.00;99329.73;1722865;81;21583;-57
2022/06/14 08:07:22;;;;;;;0.20;0.20;;;;;;;17.49;100.00;99329.58;1724644;82;21927;-56
2022/06/14 08:10:11;;;;;;;1.45;0.17;;;;;;;17.61;100.00;99338.06;1732770;82;20965;-54
2022/06/14 08:12:53;;;;;;;0.10;0.10;;;;;;;17.73;100.00;99337.09;1719876;82;21221;-55
2022/06/14 08:15:32;;;;;;;0.30;0.20;;;;;;;17.88;100.00;99325.39;1729008;82;21034;-54
2022/06/14 08:18:19;;;;;;;0.20;0.17;;;;;;;18.00;100.00;99323.86;1723404;82;21046;-55
2022/06/14 08:20:54;;;;;;;0.20;0.20;;;;;;;18.14;100.00;99343.09;1718302;82;21078;-54
2022/06/14 08:23:51;;;;;;;0.20;0.20;;;;;;;18.27;100.00;99334.74;1724884;82;21062;-55
2022/06/14 08:26:33;;;;;;;0.45;0.20;;;;;;;18.39;100.00;99335.89;1727193;82;21125;-56
2022/06/14 08:29:10;;;;;;;0.20;0.20;;;;;;;18.45;100.00;99334.02;1726162;82;21034;-55
2022/06/14 08:31:54;;;;;;;0.60;0.30;;;;;;;18.44;100.00;99344.55;1707914;82;21082;-53
2022/06/14 08:34:34;;;;;;;0.20;0.20;;;;;;;18.43;100.00;99345.55;1658980;84;21070;-58
2022/06/14 08:37:10;;;;;;;0.30;0.28;;;;;;;18.48;100.00;99359.62;1727507;82;21057;-54
2022/06/14 08:39:54;;;;;;;0.20;0.20;;;;;;;18.55;100.00;99366.75;1723570;82;21203;-53
2022/06/14 08:42:39;;;;;;;1.17;0.23;;;;;;;18.53;100.00;99368.28;1644289;85;21153;-55
2022/06/14 08:45:18;;;;;;;0.20;0.20;;;;;;;18.51;100.00;99364.81;1679756;83;21070;-54
2022/06/14 08:48:17;;;;;;;0.30;0.30;;;;;;;18.51;100.00;99361.22;1727320;81;21099;-55
2022/06/14 08:51:10;;;;;;;0.20;0.20;;;;;;;18.53;100.00;99363.33;1728874;82;21713;-53
2022/06/14 08:54:30;;;;;;;0.47;0.30;;;;;;;18.60;100.00;99365.05;1680372;83;21516;-55
2022/06/14 08:57:24;;;;;;;0.80;0.30;;;;;;;18.65;100.00;99364.12;1585680;88;21528;-56
2022/06/14 09:00:05;;;;;;;0.35;0.25;;;;;;;18.74;100.00;99365.55;1626978;86;21081;-55
2022/06/14 09:03:21;;;;;;;0.45;0.40;;;;;;;18.76;100.00;99372.24;1662435;83;21003;-54
2022/06/14 09:06:01;;;;;;;0.37;0.20;;;;;;;18.73;100.00;99356.14;1696138;82;20987;-56
2022/06/14 09:08:58;;;;;;;0.35;0.20;;;;;;;18.73;100.00;99369.27;1722403;82;21252;-55
2022/06/14 09:11:42;;;;;;;0.28;0.20;;;;;;;18.76;100.00;99362.70;1717169;82;21293;-55
2022/06/14 09:14:44;;;;;;;0.20;0.20;;;;;;;18.85;100.00;99379.61;1720929;82;21016;-54
2022/06/14 09:18:00;;;;;;;0.40;0.20;;;;;;;18.99;100.00;99368.33;1718902;82;21545;-54
2022/06/14 09:20:55;;;;;;;;;;;;;;;19.13;100.00;99378.04;1726751;82;21002;-54
2022/06/14 09:23:33;;;;;;;0.17;0.17;;;;;;;19.20;100.00;99380.58;1726175;82;21916;-56
2022/06/14 09:26:31;;;;;;;0.60;0.20;;;;;;;19.22;100.00;99383.50;1716366;82;20951;-55
2022/06/14 09:29:27;;;;;;;1.55;0.23;;;;;;;19.22;100.00;99382.14;1723483;82;20986;-53
2022/06/14 09:33:09;;;;;;;1.00;0.20;;;;;;;19.27;100.00;99390.80;1723442;82;20978;-54
2022/06/14 09:35:21;;;;;;;2.45;0.20;;;;;;;19.28;100.00;99373.92;1715222;82;21090;-56
2022/06/14 09:38:08;;;;;;;0.37;0.10;;;;;;;19.27;100.00;99377.66;1712323;82;21781;-54
2022/06/14 09:41:11;;;;;;;0.45;0.17;;;;;;;19.31;100.00;99383.18;1715093;82;21362;-55
2022/06/14 09:43:57;;;;;;;0.20;0.20;;;;;;;19.32;100.00;99387.64;1646557;85;21133;-54
2022/06/14 09:46:41;;;;;;;0.42;0.20;;;;;;;19.31;100.00;99391.90;1623765;87;21133;-55
2022/06/14 09:49:38;;;;;;;0.50;0.20;;;;;;;19.26;100.00;99385.47;1688672;82;20955;-55
2022/06/14 09:52:29;;;;;;;0.53;0.20;;;;;;;19.24;100.00;99377.92;1717593;82;21665;-56
2022/06/14 09:55:20;;;;;;;0.30;0.20;;;;;;;19.29;100.00;99375.66;1720589;82;21060;-54
2022/06/14 09:58:19;;;;;;;1.42;0.20;;;;;;;19.39;100.00;99390.20;1720473;82;21076;-55
2022/06/14 10:01:12;;;;;;;0.10;0.10;;;;;;;19.44;100.00;99383.82;1718872;82;21101;-55
2022/06/14 10:04:04;;;;;;;1.85;0.20;;;;;;;19.42;100.00;99400.83;1714336;83;21074;-55
2022/06/14 10:07:12;;;;;;;0.30;0.20;;;;;;;19.36;100.00;99400.02;1712712;83;21639;-55
2022/06/14 10:10:09;;;;;;;0.40;0.20;;;;;;;19.27;100.00;99401.71;1713740;82;21059;-54
2022/06/14 10:12:53;;;;;;;5.30;0.23;;;;;;;19.24;100.00;99396.52;1685961;82;21082;-54
2022/06/14 10:15:34;;;;;;;0.90;0.20;;;;;;;19.36;100.00;99385.02;1720877;82;21061;-54
2022/06/14 10:18:40;;;;;;;0.20;0.20;;;;;;;19.50;100.00;99387.38;1720396;82;21090;-56
2022/06/14 10:21:20;;;;;;;0.20;0.20;;;;;;;19.60;100.00;99396.47;1714462;82;21352;-56
2022/06/14 10:23:58;;;;;;;0.45;0.20;;;;;;;19.67;100.00;99390.44;1666311;82;21085;-57
2022/06/14 10:29:47;;;;;;;3.10;0.20;;;;;;;19.68;100.00;99382.61;1716085;82;21109;-56
2022/06/14 10:32:51;;;;;;;0.37;0.20;;;;;;;19.75;100.00;99387.87;1682621;83;21139;-56
2022/06/14 10:35:35;;;;;;;0.35;0.20;;;;;;;19.82;100.00;99380.33;1720194;82;21406;-55
2022/06/14 10:38:49;;;;;;;0.30;0.20;;;;;;;19.79;100.00;99371.58;1710320;82;24982;-56
2022/06/14 10:41:45;;;;;;;0.95;0.95;;;;;;;19.73;100.00;99385.31;1722703;82;21075;-56
2022/06/14 10:44:42;;;;;;;0.20;0.20;;;;;;;19.67;100.00;99374.92;1722172;82;21034;-58
2022/06/14 10:47:26;;;;;;;0.40;0.40;;;;;;;19.62;100.00;99369.90;1723008;82;21086;-56
2022/06/14 10:49:58;;;;;;;0.50;0.30;;;;;;;19.62;100.00;99371.77;1718630;82;21952;-57
2022/06/14 10:52:48;;;;;;;0.42;0.30;;;;;;;19.64;100.00;99373.36;1693700;84;21061;-57
2022/06/14 10:55:57;;;;;;;0.53;0.20;;;;;;;19.63;100.00;99363.44;1658378;84;21493;-57
2022/06/14 10:58:55;;;;;;;0.47;0.20;;;;;;;19.63;100.00;99373.50;1611207;87;21154;-56
2022/06/14 11:01:54;;;;;;;0.70;0.28;;;;;;;19.66;100.00;99374.55;1636568;85;21164;-56
2022/06/14 11:05:01;;;;;;;0.30;0.20;;;;;;;19.75;100.00;99361.92;1634475;84;21261;-56
2022/06/14 11:07:49;;;;;;;0.40;0.20;;;;;;;19.88;100.00;99365.27;1660450;84;21115;-57
2022/06/14 11:10:50;;;;;;;1.10;0.30;;;;;;;20.02;100.00;99354.78;1660196;84;21717;-56
2022/06/14 11:13:48;;;;;;;0.65;0.20;;;;;;;20.07;100.00;99348.90;1658068;84;21124;-56
2022/06/14 11:16:36;;;;;;;0.45;0.25;;;;;;;20.08;100.00;99346.50;1658865;84;21063;-56
2022/06/14 11:19:32;;;;;;;1.37;0.20;;;;;;;20.07;100.00;99342.56;1652555;84;21872;-57
2022/06/14 11:22:22;;;;;;;0.30;0.20;;;;;;;20.12;100.00;99338.89;1663301;84;21147;-56
2022/06/14 11:25:06;;;;;;;1.32;0.20;;;;;;;20.24;100.00;99335.88;1660736;84;21664;-55
2022/06/14 11:27:50;;;;;;;1.00;0.20;;;;;;;20.30;100.00;99335.78;1661528;84;21456;-56
2022/06/14 11:30:31;;;;;;;0.40;0.30;;;;;;;20.36;100.00;99340.20;1660449;84;21137;-58
2022/06/14 11:33:23;;;;;;;1.47;0.30;;;;;;;20.46;100.00;99338.82;1659395;84;21524;-55
2022/06/14 11:36:08;;;;;;;0.30;0.25;;;;;;;20.59;100.00;99344.82;1658247;84;21083;-56
2022/06/14 11:39:08;;;;;;;0.75;0.30;;;;;;;20.76;100.00;99342.69;1654551;84;21042;-55
2022/06/14 11:41:48;;;;;;;1.50;0.20;;;;;;;20.92;100.00;99327.55;1653353;84;20981;-56
2022/06/14 11:44:35;;;;;;;3.80;0.45;;;;;;;21.08;100.00;99338.22;1652671;84;21089;-55
2022/06/14 11:47:16;;;;;;;0.20;0.20;;;;;;;21.22;100.00;99338.75;1651035;84;21194;-55
2022/06/14 11:50:01;;;;;;;0.50;0.30;;;;;;;21.33;100.00;99349.00;1647359;84;21117;-55
2022/06/14 11:53:04;;;;;;;0.62;0.20;;;;;;;21.38;100.00;99347.16;1654368;84;21045;-57
2022/06/14 11:55:43;;;;;;;1.57;0.30;;;;;;;21.35;100.00;99341.48;1650935;84;21063;-55
2022/06/14 11:58:43;;;;;;;1.57;0.30;;;;;;;21.28;100.00;99336.77;1653440;84;20934;-53
2022/06/14 12:01:51;;;;;;;1.65;0.30;;;;;;;21.25;100.00;99339.32;1629576;84;21735;-54
2022/06/14 12:04:43;;;;;;;0.30;0.30;;;;;;;21.24;100.00;99339.47;1667376;84;20995;-55
2022/06/14 12:07:32;;;;;;;0.37;0.20;;;;;;;21.31;100.00;99335.97;1720554;82;20879;-56
2022/06/14 12:10:27;;;;;;;0.75;0.20;;;;;;;21.40;100.00;99346.52;1654591;84;20931;-56
2022/06/14 12:13:15;;;;;;;1.95;0.20;;;;;;;21.51;100.00;99340.84;1724524;82;20911;-55
2022/06/14 12:16:20;;;;;;;1.05;0.30;;;;;;;21.58;100.00;99343.81;1719217;82;20920;-56
2022/06/14 12:19:11;;;;;;;0.42;0.20;;;;;;;21.56;100.00;99343.97;1720655;82;20975;-54
2022/06/14 12:21:52;;;;;;;0.30;0.30;;;;;;;21.62;100.00;99330.16;1727064;82;20932;-54
2022/06/14 12:24:21;;;;;;;4.22;0.30;;;;;;;21.67;100.00;99331.44;1722850;82;20887;-54
2022/06/14 12:27:01;;;;;;;2.42;0.30;;;;;;;21.69;100.00;99335.39;1705241;82;20891;-56
2022/06/14 12:29:32;;;;;;;0.37;0.20;;;;;;;21.67;100.00;99330.06;1727260;82;21398;-54
2022/06/14 12:32:14;;;;;;;0.40;0.30;;;;;;;21.72;100.00;99341.41;1726797;82;20931;-55
2022/06/14 12:35:04;;;;;;;0.30;0.30;;;;;;;21.72;100.00;99343.28;1724666;82;20954;-56
2022/06/14 12:37:53;;;;;;;0.30;0.20;;;;;;;21.67;100.00;99347.88;1728179;82;20875;-55
2022/06/14 12:41:02;;;;;;;0.37;0.30;;;;;;;21.58;100.00;99341.08;1724726;82;21369;-55
2022/06/14 12:43:33;;;;;;;0.72;0.30;;;;;;;21.55;100.00;99349.59;1721540;82;21092;-55
2022/06/14 12:46:12;;;;;;;0.45;0.37;;;;;;;21.60;100.00;99348.14;1653188;84;21351;-54
2022/06/14 12:49:11;;;;;;;0.62;0.20;;;;;;;21.66;100.00;99351.63;1728433;82;21089;-57
2022/06/14 12:51:56;;;;;;;0.57;0.20;;;;;;;21.68;100.00;99340.52;1724151;82;21047;-57
2022/06/14 12:54:45;;;;;;;0.35;0.20;;;;;;;21.70;100.00;99340.69;1722833;82;21096;-56